sensor_id;sensor_type;location;lat;lon;timestamp;pressure;altitude;pressure_sealevel;temperature;humidity
11605;BME280;5858;43.076;25.626;2023-05-01T00:00:57;99181.28;;;12.79;100.00
11605;BME280;5858;43.076;25.626;2023-05-01T00:03:25;99164.72;;;12.75;100.00
11605;BME280;5858;43.076;25.626;2023-05-01T00:05:58;99117.81;;;12.23;100.00
11605;BME280;5858;43.076;25.626;2023-05-01T00:08:25;99167.16;;;12.70;100.00
11605;BME280;5858;43.076;25.626;2023-05-01T00:10:53;99183.50;;;12.75;100.00
11605;BME280;5858;43.076;25.626;2023-05-01T00:13:21;99060.97;;;12.00;100.00
11605;BME280;5858;43.076;25.626;2023-05-01T00:15:49;99213.56;;;12.99;100.00
11605;BME280;5858;43.076;25.626;2023-05-01T00:18:16;99179.13;;;12.68;100.00
11605;BME280;5858;43.076;25.626;2023-05-01T00:20:43;99225.13;;;12.99;100.00
11605;BME280;5858;43.076;25.626;2023-05-01T00:23:10;99188.44;;;12.72;100.00
11605;BME280;5858;43.076;25.626;2023-05-01T00:25:37;99165.25;;;12.57;100.00
11605;BME280;5858;43.076;25.626;2023-05-01T00:28:04;99118.50;;;12.32;100.00
11605;BME280;5858;43.076;25.626;2023-05-01T00:30:33;99209.16;;;12.78;100.00
11605;BME280;5858;43.076;25.626;2023-05-01T00:33:03;99047.44;;;11.80;100.00
11605;BME280;5858;43.076;25.626;2023-05-01T00:35:52;99221.50;;;12.72;100.00
11605;BME280;5858;43.076;25.626;2023-05-01T00:38:35;99228.00;;;12.91;100.00
11605;BME280;5858;43.076;25.626;2023-05-01T00:41:02;99171.81;;;12.42;100.00
11605;BME280;5858;43.076;25.626;2023-05-01T00:43:29;99178.22;;;12.47;100.00
11605;BME280;5858;43.076;25.626;2023-05-01T00:45:57;99080.72;;;11.86;100.00
11605;BME280;5858;43.076;25.626;2023-05-01T00:48:24;99057.47;;;11.72;100.00
11605;BME280;5858;43.076;25.626;2023-05-01T00:50:52;99195.63;;;12.58;100.00
11605;BME280;5858;43.076;25.626;2023-05-01T00:53:20;99103.19;;;11.85;100.00
11605;BME280;5858;43.076;25.626;2023-05-01T00:55:48;99123.06;;;11.97;100.00
11605;BME280;5858;43.076;25.626;2023-05-01T00:58:16;99143.84;;;11.88;100.00
11605;BME280;5858;43.076;25.626;2023-05-01T01:00:43;99207.53;;;12.14;99.88
11605;BME280;5858;43.076;25.626;2023-05-01T01:03:13;99063.59;;;11.10;99.28
11605;BME280;5858;43.076;25.626;2023-05-01T01:05:45;99232.78;;;11.98;100.00
11605;BME280;5858;43.076;25.626;2023-05-01T01:08:21;99248.34;;;12.10;100.00
11605;BME280;5858;43.076;25.626;2023-05-01T01:10:52;99245.13;;;11.93;100.00
11605;BME280;5858;43.076;25.626;2023-05-01T01:13:27;99253.41;;;11.98;100.00
11605;BME280;5858;43.076;25.626;2023-05-01T01:16:01;99219.13;;;11.72;100.00
11605;BME280;5858;43.076;25.626;2023-05-01T01:18:36;99197.47;;;11.74;100.00
11605;BME280;5858;43.076;25.626;2023-05-01T01:21:10;99281.31;;;12.04;100.00
11605;BME280;5858;43.076;25.626;2023-05-01T01:27:32;99260.97;;;12.16;100.00
11605;BME280;5858;43.076;25.626;2023-05-01T01:30:34;99160.13;;;11.44;100.00
11605;BME280;5858;43.076;25.626;2023-05-01T01:36:09;99210.34;;;11.57;100.00
11605;BME280;5858;43.076;25.626;2023-05-01T01:38:42;99249.03;;;11.76;100.00
11605;BME280;5858;43.076;25.626;2023-05-01T01:41:16;99226.94;;;11.46;100.00
11605;BME280;5858;43.076;25.626;2023-05-01T01:43:48;99272.09;;;11.85;100.00
11605;BME280;5858;43.076;25.626;2023-05-01T01:46:19;99104.78;;;10.87;100.00
11605;BME280;5858;43.076;25.626;2023-05-01T01:48:49;99271.16;;;11.99;100.00
11605;BME280;5858;43.076;25.626;2023-05-01T01:51:20;99205.59;;;11.59;100.00
11605;BME280;5858;43.076;25.626;2023-05-01T01:53:50;99288.66;;;11.95;100.00
11605;BME280;5858;43.076;25.626;2023-05-01T01:56:20;99261.56;;;11.83;100.00
11605;BME280;5858;43.076;25.626;2023-05-01T01:58:51;99246.88;;;11.64;100.00
11605;BME280;5858;43.076;25.626;2023-05-01T02:01:20;99233.63;;;11.56;100.00
11605;BME280;5858;43.076;25.626;2023-05-01T02:03:48;99287.25;;;11.99;100.00
11605;BME280;5858;43.076;25.626;2023-05-01T02:06:20;99227.94;;;11.45;100.00
11605;BME280;5858;43.076;25.626;2023-05-01T02:08:49;99232.78;;;11.56;100.00
11605;BME280;5858;43.076;25.626;2023-05-01T02:11:18;99231.97;;;11.55;100.00
11605;BME280;5858;43.076;25.626;2023-05-01T02:13:47;99204.84;;;11.22;100.00
11605;BME280;5858;43.076;25.626;2023-05-01T02:16:15;99260.69;;;11.61;100.00
11605;BME280;5858;43.076;25.626;2023-05-01T02:18:45;99287.78;;;11.73;100.00
11605;BME280;5858;43.076;25.626;2023-05-01T02:21:12;99217.41;;;11.22;100.00
11605;BME280;5858;43.076;25.626;2023-05-01T02:23:42;99276.56;;;11.63;100.00
11605;BME280;5858;43.076;25.626;2023-05-01T02:26:12;99183.41;;;10.86;100.00
11605;BME280;5858;43.076;25.626;2023-05-01T02:28:41;99251.31;;;11.15;100.00
11605;BME280;5858;43.076;25.626;2023-05-01T02:31:08;99305.56;;;11.38;100.00
11605;BME280;5858;43.076;25.626;2023-05-01T02:33:36;99216.91;;;10.97;100.00
11605;BME280;5858;43.076;25.626;2023-05-01T02:36:03;99281.78;;;11.14;100.00
11605;BME280;5858;43.076;25.626;2023-05-01T02:38:30;99237.44;;;10.90;100.00
11605;BME280;5858;43.076;25.626;2023-05-01T02:40:59;99247.19;;;10.83;100.00
11605;BME280;5858;43.076;25.626;2023-05-01T02:43:28;99209.13;;;10.66;100.00
11605;BME280;5858;43.076;25.626;2023-05-01T02:45:58;99197.31;;;10.60;100.00
11605;BME280;5858;43.076;25.626;2023-05-01T02:48:27;99259.38;;;11.00;100.00
11605;BME280;5858;43.076;25.626;2023-05-01T02:50:57;99274.72;;;10.91;100.00
11605;BME280;5858;43.076;25.626;2023-05-01T02:53:25;99261.97;;;10.79;100.00
11605;BME280;5858;43.076;25.626;2023-05-01T02:55:52;99291.78;;;10.90;100.00
11605;BME280;5858;43.076;25.626;2023-05-01T02:58:21;99204.97;;;10.49;100.00
11605;BME280;5858;43.076;25.626;2023-05-01T03:00:49;99293.06;;;11.09;100.00
11605;BME280;5858;43.076;25.626;2023-05-01T03:03:16;99323.50;;;11.23;100.00
11605;BME280;5858;43.076;25.626;2023-05-01T03:05:43;99290.75;;;11.06;100.00
11605;BME280;5858;43.076;25.626;2023-05-01T03:08:10;99304.88;;;11.15;100.00
11605;BME280;5858;43.076;25.626;2023-05-01T03:10:38;99321.84;;;11.37;100.00
11605;BME280;5858;43.076;25.626;2023-05-01T03:13:07;99306.72;;;11.14;100.00
11605;BME280;5858;43.076;25.626;2023-05-01T03:15:36;99241.88;;;10.53;100.00
11605;BME280;5858;43.076;25.626;2023-05-01T03:18:03;99299.53;;;10.85;100.00
11605;BME280;5858;43.076;25.626;2023-05-01T03:20:30;99320.75;;;11.16;100.00
11605;BME280;5858;43.076;25.626;2023-05-01T03:22:57;99324.34;;;11.23;100.00
11605;BME280;5858;43.076;25.626;2023-05-01T03:25:24;99327.38;;;11.20;100.00
11605;BME280;5858;43.076;25.626;2023-05-01T03:27:51;99245.47;;;10.60;100.00
11605;BME280;5858;43.076;25.626;2023-05-01T03:30:18;99224.69;;;10.33;100.00
11605;BME280;5858;43.076;25.626;2023-05-01T03:32:47;99334.16;;;11.01;100.00
11605;BME280;5858;43.076;25.626;2023-05-01T03:35:14;99273.31;;;10.36;100.00
11605;BME280;5858;43.076;25.626;2023-05-01T03:37:40;99240.44;;;10.13;100.00
11605;BME280;5858;43.076;25.626;2023-05-01T03:40:08;99309.59;;;10.54;100.00
11605;BME280;5858;43.076;25.626;2023-05-01T03:42:36;99258.44;;;10.34;100.00
11605;BME280;5858;43.076;25.626;2023-05-01T03:45:04;99351.44;;;10.99;100.00
11605;BME280;5858;43.076;25.626;2023-05-01T03:47:31;99272.78;;;10.56;100.00
11605;BME280;5858;43.076;25.626;2023-05-01T03:49:59;99321.53;;;10.95;100.00
11605;BME280;5858;43.076;25.626;2023-05-01T03:52:26;99304.59;;;10.80;100.00
11605;BME280;5858;43.076;25.626;2023-05-01T03:54:53;99356.94;;;11.27;100.00
11605;BME280;5858;43.076;25.626;2023-05-01T03:57:21;99341.59;;;11.21;99.46
11605;BME280;5858;43.076;25.626;2023-05-01T03:59:48;99309.88;;;10.88;99.21
11605;BME280;5858;43.076;25.626;2023-05-01T04:02:16;99340.41;;;11.23;98.76
11605;BME280;5858;43.076;25.626;2023-05-01T04:04:43;99277.09;;;10.86;97.83
11605;BME280;5858;43.076;25.626;2023-05-01T04:07:12;99337.28;;;11.05;98.18
11605;BME280;5858;43.076;25.626;2023-05-01T04:09:39;99351.22;;;11.15;98.62
11605;BME280;5858;43.076;25.626;2023-05-01T04:12:06;99396.66;;;11.23;99.01
11605;BME280;5858;43.076;25.626;2023-05-01T04:14:33;99343.56;;;10.97;99.89
11605;BME280;5858;43.076;25.626;2023-05-01T04:17:00;99305.72;;;10.71;99.92
11605;BME280;5858;43.076;25.626;2023-05-01T04:19:27;99354.72;;;10.86;100.00
11605;BME280;5858;43.076;25.626;2023-05-01T04:21:54;99273.72;;;10.48;99.72
11605;BME280;5858;43.076;25.626;2023-05-01T04:24:22;99313.47;;;10.81;98.69
11605;BME280;5858;43.076;25.626;2023-05-01T04:26:49;99367.41;;;10.92;99.73
11605;BME280;5858;43.076;25.626;2023-05-01T04:29:16;99396.66;;;11.23;99.25
11605;BME280;5858;43.076;25.626;2023-05-01T04:31:48;99229.13;;;10.26;98.12
11605;BME280;5858;43.076;25.626;2023-05-01T04:34:16;99387.31;;;11.19;98.61
11605;BME280;5858;43.076;25.626;2023-05-01T04:36:44;99393.69;;;11.48;97.43
11605;BME280;5858;43.076;25.626;2023-05-01T04:39:11;99316.16;;;10.95;97.45
11605;BME280;5858;43.076;25.626;2023-05-01T04:41:39;99407.81;;;11.56;97.16
11605;BME280;5858;43.076;25.626;2023-05-01T04:44:06;99401.34;;;11.51;97.28
11605;BME280;5858;43.076;25.626;2023-05-01T04:46:33;99426.19;;;11.89;96.58
11605;BME280;5858;43.076;25.626;2023-05-01T04:49:00;99387.47;;;11.62;95.49
11605;BME280;5858;43.076;25.626;2023-05-01T04:51:27;99421.81;;;11.73;96.36
11605;BME280;5858;43.076;25.626;2023-05-01T04:53:54;99400.56;;;11.72;95.95
11605;BME280;5858;43.076;25.626;2023-05-01T04:56:21;99417.47;;;11.72;95.46
11605;BME280;5858;43.076;25.626;2023-05-01T04:58:50;99407.50;;;11.81;95.42
11605;BME280;5858;43.076;25.626;2023-05-01T05:01:17;99444.91;;;12.04;95.17
11605;BME280;5858;43.076;25.626;2023-05-01T05:03:44;99398.44;;;11.82;95.17
11605;BME280;5858;43.076;25.626;2023-05-01T05:06:11;99446.38;;;12.06;95.35
11605;BME280;5858;43.076;25.626;2023-05-01T05:08:38;99377.88;;;11.53;96.17
11605;BME280;5858;43.076;25.626;2023-05-01T05:11:09;99401.84;;;11.76;95.58
11605;BME280;5858;43.076;25.626;2023-05-01T05:13:42;99375.69;;;12.14;94.63
11605;BME280;5858;43.076;25.626;2023-05-01T05:16:10;99361.31;;;12.43;93.38
11605;BME280;5858;43.076;25.626;2023-05-01T05:18:40;99466.75;;;13.35;91.00
11605;BME280;5858;43.076;25.626;2023-05-01T05:21:08;99500.41;;;13.66;90.03
11605;BME280;5858;43.076;25.626;2023-05-01T05:23:35;99450.53;;;13.57;88.33
11605;BME280;5858;43.076;25.626;2023-05-01T05:26:02;99425.06;;;13.52;87.75
11605;BME280;5858;43.076;25.626;2023-05-01T05:28:30;99359.88;;;13.03;87.72
11605;BME280;5858;43.076;25.626;2023-05-01T05:30:57;99462.34;;;13.62;88.64
11605;BME280;5858;43.076;25.626;2023-05-01T05:33:26;99462.13;;;13.57;87.99
11605;BME280;5858;43.076;25.626;2023-05-01T05:35:56;99492.25;;;13.80;87.42
11605;BME280;5858;43.076;25.626;2023-05-01T05:38:23;99421.19;;;13.68;87.48
11605;BME280;5858;43.076;25.626;2023-05-01T05:40:51;99470.56;;;14.63;86.09
11605;BME280;5858;43.076;25.626;2023-05-01T05:43:19;99466.19;;;15.41;82.21
11605;BME280;5858;43.076;25.626;2023-05-01T05:45:46;99511.06;;;16.45;79.61
11605;BME280;5858;43.076;25.626;2023-05-01T05:48:13;99488.97;;;16.61;75.49
11605;BME280;5858;43.076;25.626;2023-05-01T05:50:42;99488.38;;;17.15;72.95
11605;BME280;5858;43.076;25.626;2023-05-01T05:53:09;99381.88;;;16.73;71.77
11605;BME280;5858;43.076;25.626;2023-05-01T05:55:36;99419.22;;;17.01;70.47
11605;BME280;5858;43.076;25.626;2023-05-01T05:58:03;99488.19;;;17.35;70.68
11605;BME280;5858;43.076;25.626;2023-05-01T06:00:31;99419.00;;;17.03;70.22
11605;BME280;5858;43.076;25.626;2023-05-01T06:02:58;99426.50;;;17.00;69.61
11605;BME280;5858;43.076;25.626;2023-05-01T06:05:25;99485.50;;;17.10;70.71
11605;BME280;5858;43.076;25.626;2023-05-01T06:07:54;99487.84;;;17.00;72.44
11605;BME280;5858;43.076;25.626;2023-05-01T06:10:26;99454.09;;;16.53;73.85
11605;BME280;5858;43.076;25.626;2023-05-01T06:12:53;99442.13;;;16.11;72.80
11605;BME280;5858;43.076;25.626;2023-05-01T06:15:20;99451.22;;;15.52;75.45
11605;BME280;5858;43.076;25.626;2023-05-01T06:17:49;99464.94;;;15.37;78.02
11605;BME280;5858;43.076;25.626;2023-05-01T06:20:17;99467.59;;;15.57;77.90
11605;BME280;5858;43.076;25.626;2023-05-01T06:22:44;99344.47;;;15.31;77.20
11605;BME280;5858;43.076;25.626;2023-05-01T06:25:16;99539.25;;;17.25;75.36
11605;BME280;5858;43.076;25.626;2023-05-01T06:27:44;99466.88;;;17.63;72.28
11605;BME280;5858;43.076;25.626;2023-05-01T06:30:16;99517.34;;;18.61;68.46
11605;BME280;5858;43.076;25.626;2023-05-01T06:32:52;99522.09;;;19.07;66.48
11605;BME280;5858;43.076;25.626;2023-05-01T06:35:31;99383.88;;;18.77;63.90
11605;BME280;5858;43.076;25.626;2023-05-01T06:38:14;99399.31;;;19.12;60.16
11605;BME280;5858;43.076;25.626;2023-05-01T06:40:43;99464.56;;;19.40;60.08
11605;BME280;5858;43.076;25.626;2023-05-01T06:43:11;99433.75;;;19.23;62.10
11605;BME280;5858;43.076;25.626;2023-05-01T06:45:38;99539.34;;;20.06;63.22
11605;BME280;5858;43.076;25.626;2023-05-01T06:48:06;99405.31;;;19.26;62.37
11605;BME280;5858;43.076;25.626;2023-05-01T06:50:33;99537.22;;;20.08;54.01
11605;BME280;5858;43.076;25.626;2023-05-01T06:53:00;99462.06;;;19.50;56.01
11605;BME280;5858;43.076;25.626;2023-05-01T06:55:27;99430.22;;;19.11;58.66
11605;BME280;5858;43.076;25.626;2023-05-01T06:57:59;99448.97;;;19.24;58.92
11605;BME280;5858;43.076;25.626;2023-05-01T07:00:26;99369.72;;;18.87;58.58
11605;BME280;5858;43.076;25.626;2023-05-01T07:02:53;99541.69;;;20.15;58.08
11605;BME280;5858;43.076;25.626;2023-05-01T07:05:20;99475.84;;;19.84;56.07
11605;BME280;5858;43.076;25.626;2023-05-01T07:07:47;99522.28;;;20.23;57.68
11605;BME280;5858;43.076;25.626;2023-05-01T07:10:15;99485.06;;;19.83;58.72
11605;BME280;5858;43.076;25.626;2023-05-01T07:12:42;99456.13;;;19.89;58.65
11605;BME280;5858;43.076;25.626;2023-05-01T07:15:10;99446.44;;;19.81;55.94
11605;BME280;5858;43.076;25.626;2023-05-01T07:17:38;99460.56;;;20.06;58.98
11605;BME280;5858;43.076;25.626;2023-05-01T07:20:06;99437.47;;;19.92;57.69
11605;BME280;5858;43.076;25.626;2023-05-01T07:22:34;99482.75;;;20.15;54.96
11605;BME280;5858;43.076;25.626;2023-05-01T07:25:05;99444.13;;;20.13;56.15
11605;BME280;5858;43.076;25.626;2023-05-01T07:27:32;99531.78;;;20.77;55.27
11605;BME280;5858;43.076;25.626;2023-05-01T07:30:00;99473.94;;;20.25;53.06
11605;BME280;5858;43.076;25.626;2023-05-01T07:32:28;99488.13;;;20.27;56.03
11605;BME280;5858;43.076;25.626;2023-05-01T07:34:57;99464.22;;;19.60;54.16
11605;BME280;5858;43.076;25.626;2023-05-01T07:37:24;99560.50;;;19.81;58.91
11605;BME280;5858;43.076;25.626;2023-05-01T07:39:53;99456.53;;;19.22;59.78
11605;BME280;5858;43.076;25.626;2023-05-01T07:42:20;99560.38;;;20.11;57.97
11605;BME280;5858;43.076;25.626;2023-05-01T07:44:49;99466.00;;;19.55;57.85
11605;BME280;5858;43.076;25.626;2023-05-01T07:47:16;99401.66;;;19.32;59.40
11605;BME280;5858;43.076;25.626;2023-05-01T07:49:48;99393.78;;;19.18;56.63
11605;BME280;5858;43.076;25.626;2023-05-01T07:52:15;99577.63;;;20.05;56.69
11605;BME280;5858;43.076;25.626;2023-05-01T07:54:42;99484.13;;;19.31;56.06
11605;BME280;5858;43.076;25.626;2023-05-01T07:57:14;99570.91;;;19.72;56.44
11605;BME280;5858;43.076;25.626;2023-05-01T07:59:41;99477.66;;;19.43;57.12
11605;BME280;5858;43.076;25.626;2023-05-01T08:02:08;99501.28;;;19.55;57.60
11605;BME280;5858;43.076;25.626;2023-05-01T08:04:36;99535.59;;;19.72;56.55
11605;BME280;5858;43.076;25.626;2023-05-01T08:07:04;99547.28;;;19.96;55.63
11605;BME280;5858;43.076;25.626;2023-05-01T08:09:33;99466.66;;;19.50;58.72
11605;BME280;5858;43.076;25.626;2023-05-01T08:12:00;99456.72;;;19.79;56.40
11605;BME280;5858;43.076;25.626;2023-05-01T08:14:28;99513.56;;;20.21;55.30
11605;BME280;5858;43.076;25.626;2023-05-01T08:16:55;99483.94;;;20.07;53.81
11605;BME280;5858;43.076;25.626;2023-05-01T08:19:22;99540.00;;;20.65;53.89
11605;BME280;5858;43.076;25.626;2023-05-01T08:21:49;99566.63;;;21.37;55.68
11605;BME280;5858;43.076;25.626;2023-05-01T08:24:19;99417.81;;;20.75;53.60
11605;BME280;5858;43.076;25.626;2023-05-01T08:26:46;99574.22;;;21.52;49.96
11605;BME280;5858;43.076;25.626;2023-05-01T08:29:13;99505.25;;;21.29;52.27
11605;BME280;5858;43.076;25.626;2023-05-01T08:31:40;99557.63;;;21.36;49.16
11605;BME280;5858;43.076;25.626;2023-05-01T08:34:08;99391.44;;;20.14;51.67
11605;BME280;5858;43.076;25.626;2023-05-01T08:36:35;99463.81;;;20.20;51.00
11605;BME280;5858;43.076;25.626;2023-05-01T08:39:02;99525.13;;;20.39;51.00
11605;BME280;5858;43.076;25.626;2023-05-01T08:41:31;99523.06;;;20.47;49.93
11605;BME280;5858;43.076;25.626;2023-05-01T08:43:59;99555.50;;;20.93;50.20
11605;BME280;5858;43.076;25.626;2023-05-01T08:46:33;99460.47;;;20.01;50.97
11605;BME280;5858;43.076;25.626;2023-05-01T08:49:04;99487.63;;;20.30;51.44
11605;BME280;5858;43.076;25.626;2023-05-01T08:51:33;99506.56;;;20.25;44.24
11605;BME280;5858;43.076;25.626;2023-05-01T08:54:00;99414.44;;;19.95;43.54
11605;BME280;5858;43.076;25.626;2023-05-01T08:56:38;99511.50;;;20.68;45.34
11605;BME280;5858;43.076;25.626;2023-05-01T08:59:10;99434.84;;;20.54;46.91
11605;BME280;5858;43.076;25.626;2023-05-01T09:01:40;99492.94;;;21.27;44.00
11605;BME280;5858;43.076;25.626;2023-05-01T09:04:07;99447.22;;;21.12;44.63
11605;BME280;5858;43.076;25.626;2023-05-01T09:06:35;99504.88;;;21.76;45.71
11605;BME280;5858;43.076;25.626;2023-05-01T09:09:02;99537.63;;;21.14;45.36
11605;BME280;5858;43.076;25.626;2023-05-01T09:11:29;99475.78;;;20.07;47.50
11605;BME280;5858;43.076;25.626;2023-05-01T09:13:59;99521.69;;;20.21;48.99
11605;BME280;5858;43.076;25.626;2023-05-01T09:16:30;99441.28;;;19.33;48.39
11605;BME280;5858;43.076;25.626;2023-05-01T09:18:57;99531.50;;;19.58;48.48
11605;BME280;5858;43.076;25.626;2023-05-01T09:21:26;99437.28;;;19.24;48.91
11605;BME280;5858;43.076;25.626;2023-05-01T09:23:56;99392.84;;;19.13;48.71
11605;BME280;5858;43.076;25.626;2023-05-01T09:26:23;99418.28;;;19.47;49.47
11605;BME280;5858;43.076;25.626;2023-05-01T09:28:51;99501.44;;;20.00;47.53
11605;BME280;5858;43.076;25.626;2023-05-01T09:31:25;99444.91;;;19.85;45.78
11605;BME280;5858;43.076;25.626;2023-05-01T09:33:54;99464.63;;;19.92;44.47
11605;BME280;5858;43.076;25.626;2023-05-01T09:36:26;99450.97;;;19.64;46.06
11605;BME280;5858;43.076;25.626;2023-05-01T09:38:57;99529.75;;;20.16;45.86
11605;BME280;5858;43.076;25.626;2023-05-01T09:41:25;99443.75;;;19.69;45.35
11605;BME280;5858;43.076;25.626;2023-05-01T09:43:54;99485.13;;;20.11;44.53
11605;BME280;5858;43.076;25.626;2023-05-01T09:46:25;99539.63;;;20.73;43.66
11605;BME280;5858;43.076;25.626;2023-05-01T09:48:56;99409.03;;;20.11;42.54
11605;BME280;5858;43.076;25.626;2023-05-01T09:51:32;99550.41;;;20.97;42.48
11605;BME280;5858;43.076;25.626;2023-05-01T09:54:01;99491.47;;;20.74;42.89
11605;BME280;5858;43.076;25.626;2023-05-01T09:56:30;99508.44;;;20.93;41.47
11605;BME280;5858;43.076;25.626;2023-05-01T09:58:58;99484.84;;;20.82;39.85
11605;BME280;5858;43.076;25.626;2023-05-01T10:01:42;99474.69;;;20.77;40.39
11605;BME280;5858;43.076;25.626;2023-05-01T10:04:13;99502.16;;;21.09;39.75
11605;BME280;5858;43.076;25.626;2023-05-01T10:06:43;99483.50;;;21.18;38.11
11605;BME280;5858;43.076;25.626;2023-05-01T10:09:26;99487.59;;;21.32;38.56
11605;BME280;5858;43.076;25.626;2023-05-01T10:11:55;99363.28;;;20.82;38.51
11605;BME280;5858;43.076;25.626;2023-05-01T10:14:23;99498.75;;;21.69;37.21
11605;BME280;5858;43.076;25.626;2023-05-01T10:16:54;99477.00;;;21.74;38.09
11605;BME280;5858;43.076;25.626;2023-05-01T10:19:24;99449.00;;;21.57;37.91
11605;BME280;5858;43.076;25.626;2023-05-01T10:21:52;99491.94;;;21.88;38.34
11605;BME280;5858;43.076;25.626;2023-05-01T10:24:21;99530.91;;;22.27;40.39
11605;BME280;5858;43.076;25.626;2023-05-01T10:26:51;99502.63;;;22.34;39.33
11605;BME280;5858;43.076;25.626;2023-05-01T10:29:20;99487.06;;;22.12;37.14
11605;BME280;5858;43.076;25.626;2023-05-01T10:31:56;99518.50;;;22.20;36.50
11605;BME280;5858;43.076;25.626;2023-05-01T10:34:27;99447.31;;;21.73;37.58
11605;BME280;5858;43.076;25.626;2023-05-01T10:36:58;99509.78;;;22.18;37.18
11605;BME280;5858;43.076;25.626;2023-05-01T10:39:29;99533.13;;;22.57;38.23
11605;BME280;5858;43.076;25.626;2023-05-01T10:42:03;99536.47;;;22.65;36.85
11605;BME280;5858;43.076;25.626;2023-05-01T10:44:34;99440.16;;;21.66;37.97
11605;BME280;5858;43.076;25.626;2023-05-01T10:50:11;99498.97;;;21.46;38.59
11605;BME280;5858;43.076;25.626;2023-05-01T10:53:17;99520.91;;;21.94;37.99
11605;BME280;5858;43.076;25.626;2023-05-01T10:55:44;99524.88;;;22.25;36.31
11605;BME280;5858;43.076;25.626;2023-05-01T11:01:28;99524.13;;;22.30;37.05
11605;BME280;5858;43.076;25.626;2023-05-01T11:03:57;99528.59;;;22.19;36.10
11605;BME280;5858;43.076;25.626;2023-05-01T11:06:35;99444.13;;;21.59;36.64
11605;BME280;5858;43.076;25.626;2023-05-01T11:09:36;99478.66;;;21.75;36.25
11605;BME280;5858;43.076;25.626;2023-05-01T11:12:08;99460.22;;;21.60;35.89
11605;BME280;5858;43.076;25.626;2023-05-01T11:15:00;99524.59;;;22.05;36.97
11605;BME280;5858;43.076;25.626;2023-05-01T11:17:47;99456.88;;;21.53;34.64
11605;BME280;5858;43.076;25.626;2023-05-01T11:20:47;99385.56;;;21.56;34.52
11605;BME280;5858;43.076;25.626;2023-05-01T11:23:22;99529.13;;;22.65;33.20
11605;BME280;5858;43.076;25.626;2023-05-01T11:26:00;99470.41;;;22.09;33.43
11605;BME280;5858;43.076;25.626;2023-05-01T11:28:30;99464.56;;;22.22;34.36
11605;BME280;5858;43.076;25.626;2023-05-01T11:30:57;99464.34;;;22.50;34.70
11605;BME280;5858;43.076;25.626;2023-05-01T11:33:25;99507.72;;;22.79;32.94
11605;BME280;5858;43.076;25.626;2023-05-01T11:35:59;99521.28;;;22.96;33.54
11605;BME280;5858;43.076;25.626;2023-05-01T11:38:28;99392.94;;;22.26;33.17
11605;BME280;5858;43.076;25.626;2023-05-01T11:40:57;99512.59;;;23.36;33.42
11605;BME280;5858;43.076;25.626;2023-05-01T11:43:30;99414.66;;;22.75;32.96
11605;BME280;5858;43.076;25.626;2023-05-01T11:45:57;99462.44;;;22.78;32.92
11605;BME280;5858;43.076;25.626;2023-05-01T11:48:29;99475.47;;;23.03;32.42
11605;BME280;5858;43.076;25.626;2023-05-01T11:50:56;99313.97;;;21.83;32.59
11605;BME280;5858;43.076;25.626;2023-05-01T11:53:26;99459.72;;;22.24;32.90
11605;BME280;5858;43.076;25.626;2023-05-01T11:55:55;99445.06;;;21.86;32.44
11605;BME280;5858;43.076;25.626;2023-05-01T11:58:31;99480.50;;;21.69;33.27
11605;BME280;5858;43.076;25.626;2023-05-01T12:01:01;99457.22;;;21.79;32.31
11605;BME280;5858;43.076;25.626;2023-05-01T12:03:39;99461.72;;;22.12;31.66
11605;BME280;5858;43.076;25.626;2023-05-01T12:06:08;99440.47;;;22.36;30.94
11605;BME280;5858;43.076;25.626;2023-05-01T12:08:35;99480.91;;;22.98;30.27
11605;BME280;5858;43.076;25.626;2023-05-01T12:11:05;99408.66;;;22.46;30.59
11605;BME280;5858;43.076;25.626;2023-05-01T12:13:33;99460.72;;;22.99;31.09
11605;BME280;5858;43.076;25.626;2023-05-01T12:16:00;99437.69;;;22.84;31.15
11605;BME280;5858;43.076;25.626;2023-05-01T12:18:28;99365.78;;;22.37;31.23
11605;BME280;5858;43.076;25.626;2023-05-01T12:21:02;99496.84;;;23.11;31.71
11605;BME280;5858;43.076;25.626;2023-05-01T12:23:30;99458.88;;;23.09;31.50
11605;BME280;5858;43.076;25.626;2023-05-01T12:25:58;99495.56;;;23.18;31.03
11605;BME280;5858;43.076;25.626;2023-05-01T12:28:29;99330.84;;;22.07;30.58
11605;BME280;5858;43.076;25.626;2023-05-01T12:31:02;99365.56;;;22.16;31.15
11605;BME280;5858;43.076;25.626;2023-05-01T12:33:29;99342.47;;;21.75;31.47
11605;BME280;5858;43.076;25.626;2023-05-01T12:36:07;99412.22;;;21.98;31.30
11605;BME280;5858;43.076;25.626;2023-05-01T12:38:36;99379.66;;;21.43;32.28
11605;BME280;5858;43.076;25.626;2023-05-01T12:41:04;99445.56;;;21.83;32.71
11605;BME280;5858;43.076;25.626;2023-05-01T12:43:39;99397.00;;;21.36;31.44
11605;BME280;5858;43.076;25.626;2023-05-01T12:46:13;99431.91;;;21.61;31.33
11605;BME280;5858;43.076;25.626;2023-05-01T12:48:40;99482.94;;;21.88;30.62
11605;BME280;5858;43.076;25.626;2023-05-01T12:51:07;99457.38;;;21.50;30.78
11605;BME280;5858;43.076;25.626;2023-05-01T12:53:42;99502.88;;;21.72;30.62
11605;BME280;5858;43.076;25.626;2023-05-01T12:56:20;99435.84;;;21.71;29.54
11605;BME280;5858;43.076;25.626;2023-05-01T12:58:50;99367.69;;;21.44;28.77
11605;BME280;5858;43.076;25.626;2023-05-01T13:01:23;99470.84;;;22.22;30.30
11605;BME280;5858;43.076;25.626;2023-05-01T13:03:51;99399.66;;;21.97;30.51
11605;BME280;5858;43.076;25.626;2023-05-01T13:06:21;99351.72;;;21.74;30.22
11605;BME280;5858;43.076;25.626;2023-05-01T13:08:48;99458.03;;;22.23;29.77
11605;BME280;5858;43.076;25.626;2023-05-01T13:11:16;99349.19;;;21.67;29.24
11605;BME280;5858;43.076;25.626;2023-05-01T13:13:44;99343.69;;;21.84;29.24
11605;BME280;5858;43.076;25.626;2023-05-01T13:16:32;99418.19;;;22.44;30.32
11605;BME280;5858;43.076;25.626;2023-05-01T13:19:26;99414.22;;;22.29;30.76
11605;BME280;5858;43.076;25.626;2023-05-01T13:21:58;99329.75;;;21.81;30.83
11605;BME280;5858;43.076;25.626;2023-05-01T13:24:34;99481.16;;;22.69;30.22